sensor_id;sensor_type;location;lat;lon;timestamp;temperature;humidity
16728;DHT22;8482;54.396;18.590;2023-02-20T00:00:31;6.20;99.90
16728;DHT22;8482;54.396;18.590;2023-02-20T00:02:58;6.30;99.90
16728;DHT22;8482;54.396;18.590;2023-02-20T00:05:24;6.20;99.90
16728;DHT22;8482;54.396;18.590;2023-02-20T00:07:50;6.30;99.90
16728;DHT22;8482;54.396;18.590;2023-02-20T00:10:17;6.20;99.90
16728;DHT22;8482;54.396;18.590;2023-02-20T00:12:43;6.30;99.90
16728;DHT22;8482;54.396;18.590;2023-02-20T00:15:13;6.30;99.90
16728;DHT22;8482;54.396;18.590;2023-02-20T00:17:41;6.30;99.90
16728;DHT22;8482;54.396;18.590;2023-02-20T00:20:09;6.30;99.90
16728;DHT22;8482;54.396;18.590;2023-02-20T00:22:35;6.30;99.90
16728;DHT22;8482;54.396;18.590;2023-02-20T00:25:01;6.30;99.90
16728;DHT22;8482;54.396;18.590;2023-02-20T00:27:27;6.30;99.90
16728;DHT22;8482;54.396;18.590;2023-02-20T00:29:53;6.30;99.90
16728;DHT22;8482;54.396;18.590;2023-02-20T00:32:19;6.30;99.90
16728;DHT22;8482;54.396;18.590;2023-02-20T00:34:44;6.30;99.90
16728;DHT22;8482;54.396;18.590;2023-02-20T00:37:10;6.30;99.90
16728;DHT22;8482;54.396;18.590;2023-02-20T00:39:36;6.30;99.90
16728;DHT22;8482;54.396;18.590;2023-02-20T00:42:02;6.30;99.90
16728;DHT22;8482;54.396;18.590;2023-02-20T00:44:28;6.30;99.90
16728;DHT22;8482;54.396;18.590;2023-02-20T00:46:54;6.30;99.90
16728;DHT22;8482;54.396;18.590;2023-02-20T00:49:20;6.40;99.90
16728;DHT22;8482;54.396;18.590;2023-02-20T00:51:45;6.40;99.90
16728;DHT22;8482;54.396;18.590;2023-02-20T00:54:12;6.40;99.90
16728;DHT22;8482;54.396;18.590;2023-02-20T00:56:38;6.40;99.90
16728;DHT22;8482;54.396;18.590;2023-02-20T00:59:03;6.40;99.90
16728;DHT22;8482;54.396;18.590;2023-02-20T01:01:29;6.40;99.90
16728;DHT22;8482;54.396;18.590;2023-02-20T01:03:55;6.40;99.90
16728;DHT22;8482;54.396;18.590;2023-02-20T01:06:21;6.40;99.90
16728;DHT22;8482;54.396;18.590;2023-02-20T01:08:47;6.40;99.90
16728;DHT22;8482;54.396;18.590;2023-02-20T01:11:13;6.40;99.90
16728;DHT22;8482;54.396;18.590;2023-02-20T01:13:39;6.40;99.90
16728;DHT22;8482;54.396;18.590;2023-02-20T01:16:05;6.40;99.90
16728;DHT22;8482;54.396;18.590;2023-02-20T01:18:31;6.50;99.90
16728;DHT22;8482;54.396;18.590;2023-02-20T01:20:57;6.50;99.90
16728;DHT22;8482;54.396;18.590;2023-02-20T01:23:23;6.40;99.90
16728;DHT22;8482;54.396;18.590;2023-02-20T01:25:49;6.50;99.90
16728;DHT22;8482;54.396;18.590;2023-02-20T01:28:16;6.50;99.90
16728;DHT22;8482;54.396;18.590;2023-02-20T01:30:42;6.50;99.90
16728;DHT22;8482;54.396;18.590;2023-02-20T01:33:07;6.50;99.90
16728;DHT22;8482;54.396;18.590;2023-02-20T01:35:33;6.50;99.90
16728;DHT22;8482;54.396;18.590;2023-02-20T01:37:59;6.50;99.90
16728;DHT22;8482;54.396;18.590;2023-02-20T01:40:29;6.50;99.90
16728;DHT22;8482;54.396;18.590;2023-02-20T01:42:55;6.50;99.90
16728;DHT22;8482;54.396;18.590;2023-02-20T01:47:48;6.50;99.90
16728;DHT22;8482;54.396;18.590;2023-02-20T01:50:39;6.50;99.90
16728;DHT22;8482;54.396;18.590;2023-02-20T01:53:10;6.60;99.90
16728;DHT22;8482;54.396;18.590;2023-02-20T01:58:29;6.50;99.90
16728;DHT22;8482;54.396;18.590;2023-02-20T02:01:05;6.50;99.90
16728;DHT22;8482;54.396;18.590;2023-02-20T02:03:38;6.50;99.90
16728;DHT22;8482;54.396;18.590;2023-02-20T02:06:07;6.50;99.90
16728;DHT22;8482;54.396;18.590;2023-02-20T02:08:36;6.40;99.90
16728;DHT22;8482;54.396;18.590;2023-02-20T02:11:13;6.40;99.90
16728;DHT22;8482;54.396;18.590;2023-02-20T02:13:42;6.40;99.90
16728;DHT22;8482;54.396;18.590;2023-02-20T02:19:06;6.40;99.90
16728;DHT22;8482;54.396;18.590;2023-02-20T02:27:59;6.40;99.90
16728;DHT22;8482;54.396;18.590;2023-02-20T02:36:43;6.40;99.90
16728;DHT22;8482;54.396;18.590;2023-02-20T02:39:33;6.40;99.90
16728;DHT22;8482;54.396;18.590;2023-02-20T02:45:15;6.30;99.90
16728;DHT22;8482;54.396;18.590;2023-02-20T02:50:36;6.30;99.90
16728;DHT22;8482;54.396;18.590;2023-02-20T02:53:06;6.30;99.90
16728;DHT22;8482;54.396;18.590;2023-02-20T02:55:34;6.30;99.90
16728;DHT22;8482;54.396;18.590;2023-02-20T02:58:01;6.30;99.90
16728;DHT22;8482;54.396;18.590;2023-02-20T03:00:48;6.30;99.90
16728;DHT22;8482;54.396;18.590;2023-02-20T03:06:02;6.40;99.90
16728;DHT22;8482;54.396;18.590;2023-02-20T03:08:55;6.40;99.90
16728;DHT22;8482;54.396;18.590;2023-02-20T03:11:28;6.30;99.90
16728;DHT22;8482;54.396;18.590;2023-02-20T03:14:02;6.30;99.90
16728;DHT22;8482;54.396;18.590;2023-02-20T03:20:00;6.40;99.90
16728;DHT22;8482;54.396;18.590;2023-02-20T03:22:37;6.30;99.90
16728;DHT22;8482;54.396;18.590;2023-02-20T03:25:52;6.30;99.90
16728;DHT22;8482;54.396;18.590;2023-02-20T03:28:10;6.30;99.90
16728;DHT22;8482;54.396;18.590;2023-02-20T03:33:35;6.20;99.90
16728;DHT22;8482;54.396;18.590;2023-02-20T03:36:36;6.20;99.90
16728;DHT22;8482;54.396;18.590;2023-02-20T03:39:35;6.20;99.90
16728;DHT22;8482;54.396;18.590;2023-02-20T03:42:25;6.20;99.90
16728;DHT22;8482;54.396;18.590;2023-02-20T03:45:13;6.20;99.90
16728;DHT22;8482;54.396;18.590;2023-02-20T03:47:44;6.20;99.90
16728;DHT22;8482;54.396;18.590;2023-02-20T03:50:18;6.20;99.90
16728;DHT22;8482;54.396;18.590;2023-02-20T03:52:44;6.20;99.90
16728;DHT22;8482;54.396;18.590;2023-02-20T03:55:10;6.10;99.90
16728;DHT22;8482;54.396;18.590;2023-02-20T03:57:40;6.10;99.90
16728;DHT22;8482;54.396;18.590;2023-02-20T04:00:15;6.00;99.90
16728;DHT22;8482;54.396;18.590;2023-02-20T04:02:46;6.00;99.90
16728;DHT22;8482;54.396;18.590;2023-02-20T04:05:31;6.00;99.90
16728;DHT22;8482;54.396;18.590;2023-02-20T04:08:09;6.00;99.90
16728;DHT22;8482;54.396;18.590;2023-02-20T04:10:49;6.00;99.90
16728;DHT22;8482;54.396;18.590;2023-02-20T04:13:20;5.90;99.90
16728;DHT22;8482;54.396;18.590;2023-02-20T04:15:47;5.90;99.90
16728;DHT22;8482;54.396;18.590;2023-02-20T04:18:17;5.80;99.90
16728;DHT22;8482;54.396;18.590;2023-02-20T04:20:49;5.80;99.90
16728;DHT22;8482;54.396;18.590;2023-02-20T04:23:20;5.80;99.90
16728;DHT22;8482;54.396;18.590;2023-02-20T04:25:51;5.80;99.90
16728;DHT22;8482;54.396;18.590;2023-02-20T04:28:21;5.80;99.90
16728;DHT22;8482;54.396;18.590;2023-02-20T04:30:49;5.70;99.90
16728;DHT22;8482;54.396;18.590;2023-02-20T04:33:16;5.70;99.90
16728;DHT22;8482;54.396;18.590;2023-02-20T04:35:43;5.60;99.90
16728;DHT22;8482;54.396;18.590;2023-02-20T04:38:09;5.60;99.90
16728;DHT22;8482;54.396;18.590;2023-02-20T04:40:36;5.60;99.90
16728;DHT22;8482;54.396;18.590;2023-02-20T04:43:02;5.60;99.90
16728;DHT22;8482;54.396;18.590;2023-02-20T04:45:28;5.50;99.90
16728;DHT22;8482;54.396;18.590;2023-02-20T04:47:55;5.50;99.90
16728;DHT22;8482;54.396;18.590;2023-02-20T04:50:31;5.50;99.90
16728;DHT22;8482;54.396;18.590;2023-02-20T04:52:59;5.50;99.90
16728;DHT22;8482;54.396;18.590;2023-02-20T04:55:26;5.50;99.90
16728;DHT22;8482;54.396;18.590;2023-02-20T04:57:53;5.50;99.90
16728;DHT22;8482;54.396;18.590;2023-02-20T05:00:21;5.50;99.90
16728;DHT22;8482;54.396;18.590;2023-02-20T05:02:48;5.40;99.90
16728;DHT22;8482;54.396;18.590;2023-02-20T05:05:25;5.40;99.90
16728;DHT22;8482;54.396;18.590;2023-02-20T05:08:01;5.40;99.90
16728;DHT22;8482;54.396;18.590;2023-02-20T05:10:30;5.40;99.90
16728;DHT22;8482;54.396;18.590;2023-02-20T05:12:57;5.30;99.90
16728;DHT22;8482;54.396;18.590;2023-02-20T05:15:25;5.30;99.90
16728;DHT22;8482;54.396;18.590;2023-02-20T05:17:54;5.30;99.90
16728;DHT22;8482;54.396;18.590;2023-02-20T05:20:20;5.30;99.90
16728;DHT22;8482;54.396;18.590;2023-02-20T05:22:47;5.30;99.90
16728;DHT22;8482;54.396;18.590;2023-02-20T05:25:14;5.30;99.90
16728;DHT22;8482;54.396;18.590;2023-02-20T05:27:40;5.30;99.90
16728;DHT22;8482;54.396;18.590;2023-02-20T05:30:08;5.20;99.90
16728;DHT22;8482;54.396;18.590;2023-02-20T05:32:35;5.30;99.90
16728;DHT22;8482;54.396;18.590;2023-02-20T05:35:00;5.20;99.90
16728;DHT22;8482;54.396;18.590;2023-02-20T05:37:27;5.20;99.90
16728;DHT22;8482;54.396;18.590;2023-02-20T05:39:53;5.20;99.90
16728;DHT22;8482;54.396;18.590;2023-02-20T05:42:19;5.20;99.90
16728;DHT22;8482;54.396;18.590;2023-02-20T05:44:47;5.20;99.90
16728;DHT22;8482;54.396;18.590;2023-02-20T05:47:14;5.20;99.90
16728;DHT22;8482;54.396;18.590;2023-02-20T05:49:41;5.20;99.90
16728;DHT22;8482;54.396;18.590;2023-02-20T05:52:07;5.20;99.90
16728;DHT22;8482;54.396;18.590;2023-02-20T05:54:39;5.20;99.90
16728;DHT22;8482;54.396;18.590;2023-02-20T05:57:07;5.20;99.90
16728;DHT22;8482;54.396;18.590;2023-02-20T05:59:33;5.20;99.90
16728;DHT22;8482;54.396;18.590;2023-02-20T06:01:59;5.20;99.90
16728;DHT22;8482;54.396;18.590;2023-02-20T06:04:26;5.20;99.90
16728;DHT22;8482;54.396;18.590;2023-02-20T06:06:52;5.20;99.90
16728;DHT22;8482;54.396;18.590;2023-02-20T06:09:18;5.20;99.90
16728;DHT22;8482;54.396;18.590;2023-02-20T06:11:49;5.10;99.90
16728;DHT22;8482;54.396;18.590;2023-02-20T06:14:18;5.10;99.90
16728;DHT22;8482;54.396;18.590;2023-02-20T06:16:45;5.10;99.90
16728;DHT22;8482;54.396;18.590;2023-02-20T06:19:11;5.10;99.90
16728;DHT22;8482;54.396;18.590;2023-02-20T06:21:46;5.10;99.90
16728;DHT22;8482;54.396;18.590;2023-02-20T06:24:13;5.00;99.90
16728;DHT22;8482;54.396;18.590;2023-02-20T06:26:40;5.00;99.90
16728;DHT22;8482;54.396;18.590;2023-02-20T06:29:06;5.00;99.90
16728;DHT22;8482;54.396;18.590;2023-02-20T06:31:32;5.00;99.90
16728;DHT22;8482;54.396;18.590;2023-02-20T06:33:59;5.00;99.90
16728;DHT22;8482;54.396;18.590;2023-02-20T06:36:30;5.00;99.90
16728;DHT22;8482;54.396;18.590;2023-02-20T06:38:59;5.00;99.90
16728;DHT22;8482;54.396;18.590;2023-02-20T06:41:25;4.90;99.90
16728;DHT22;8482;54.396;18.590;2023-02-20T06:43:51;4.90;99.90
16728;DHT22;8482;54.396;18.590;2023-02-20T06:46:17;4.90;99.90
16728;DHT22;8482;54.396;18.590;2023-02-20T06:48:52;4.90;99.90
16728;DHT22;8482;54.396;18.590;2023-02-20T06:51:23;4.90;99.90
16728;DHT22;8482;54.396;18.590;2023-02-20T06:53:53;4.90;99.90
16728;DHT22;8482;54.396;18.590;2023-02-20T06:56:22;4.90;99.90
16728;DHT22;8482;54.396;18.590;2023-02-20T06:58:52;4.90;99.90
16728;DHT22;8482;54.396;18.590;2023-02-20T07:01:20;4.90;99.90
16728;DHT22;8482;54.396;18.590;2023-02-20T07:03:48;4.90;99.90
16728;DHT22;8482;54.396;18.590;2023-02-20T07:06:16;4.90;99.90
16728;DHT22;8482;54.396;18.590;2023-02-20T07:08:42;4.90;99.90
16728;DHT22;8482;54.396;18.590;2023-02-20T07:11:08;4.90;99.90
16728;DHT22;8482;54.396;18.590;2023-02-20T07:13:34;4.90;99.90
16728;DHT22;8482;54.396;18.590;2023-02-20T07:16:00;4.90;99.90
16728;DHT22;8482;54.396;18.590;2023-02-20T07:18:26;4.90;99.90
16728;DHT22;8482;54.396;18.590;2023-02-20T07:20:53;4.90;99.90
16728;DHT22;8482;54.396;18.590;2023-02-20T07:23:20;4.90;99.90
16728;DHT22;8482;54.396;18.590;2023-02-20T07:25:46;4.90;99.90
16728;DHT22;8482;54.396;18.590;2023-02-20T07:28:13;4.80;99.90
16728;DHT22;8482;54.396;18.590;2023-02-20T07:30:39;4.80;99.90
16728;DHT22;8482;54.396;18.590;2023-02-20T07:33:06;4.80;99.90
16728;DHT22;8482;54.396;18.590;2023-02-20T07:35:31;4.80;99.90
16728;DHT22;8482;54.396;18.590;2023-02-20T07:37:57;4.80;99.90
16728;DHT22;8482;54.396;18.590;2023-02-20T07:40:23;4.80;99.90
16728;DHT22;8482;54.396;18.590;2023-02-20T07:42:49;4.80;99.90
16728;DHT22;8482;54.396;18.590;2023-02-20T07:45:15;4.80;99.90
16728;DHT22;8482;54.396;18.590;2023-02-20T07:47:40;4.80;99.90
16728;DHT22;8482;54.396;18.590;2023-02-20T07:50:06;4.80;99.90
16728;DHT22;8482;54.396;18.590;2023-02-20T07:52:32;4.80;99.90
16728;DHT22;8482;54.396;18.590;2023-02-20T07:54:58;4.70;99.90
16728;DHT22;8482;54.396;18.590;2023-02-20T07:57:24;4.70;99.90
16728;DHT22;8482;54.396;18.590;2023-02-20T07:59:50;4.70;99.90
16728;DHT22;8482;54.396;18.590;2023-02-20T08:02:19;4.70;99.90
16728;DHT22;8482;54.396;18.590;2023-02-20T08:04:45;4.70;99.90
16728;DHT22;8482;54.396;18.590;2023-02-20T08:07:10;4.70;99.90
16728;DHT22;8482;54.396;18.590;2023-02-20T08:09:36;4.70;99.90
16728;DHT22;8482;54.396;18.590;2023-02-20T08:12:02;4.70;99.90
16728;DHT22;8482;54.396;18.590;2023-02-20T08:14:28;4.70;99.90
16728;DHT22;8482;54.396;18.590;2023-02-20T08:16:55;4.60;99.90
16728;DHT22;8482;54.396;18.590;2023-02-20T08:19:21;4.60;99.90
16728;DHT22;8482;54.396;18.590;2023-02-20T08:21:47;4.60;99.90
16728;DHT22;8482;54.396;18.590;2023-02-20T08:24:13;4.60;99.90
16728;DHT22;8482;54.396;18.590;2023-02-20T08:26:43;4.60;99.90
16728;DHT22;8482;54.396;18.590;2023-02-20T08:29:10;4.60;99.90
16728;DHT22;8482;54.396;18.590;2023-02-20T08:31:36;4.50;99.90
16728;DHT22;8482;54.396;18.590;2023-02-20T08:34:02;4.60;99.90
16728;DHT22;8482;54.396;18.590;2023-02-20T08:36:28;4.50;99.90
16728;DHT22;8482;54.396;18.590;2023-02-20T08:38:54;4.50;99.90
16728;DHT22;8482;54.396;18.590;2023-02-20T08:41:22;4.50;99.90
16728;DHT22;8482;54.396;18.590;2023-02-20T08:43:47;4.50;99.90
16728;DHT22;8482;54.396;18.590;2023-02-20T08:46:14;4.50;99.90
16728;DHT22;8482;54.396;18.590;2023-02-20T08:48:40;4.50;99.90
16728;DHT22;8482;54.396;18.590;2023-02-20T08:51:06;4.50;99.90
16728;DHT22;8482;54.396;18.590;2023-02-20T08:53:32;4.50;99.90
16728;DHT22;8482;54.396;18.590;2023-02-20T08:55:59;4.60;99.90
16728;DHT22;8482;54.396;18.590;2023-02-20T08:58:25;4.60;99.90
16728;DHT22;8482;54.396;18.590;2023-02-20T09:00:51;4.60;99.90
16728;DHT22;8482;54.396;18.590;2023-02-20T09:03:18;4.70;99.90
16728;DHT22;8482;54.396;18.590;2023-02-20T09:05:44;4.70;99.90
16728;DHT22;8482;54.396;18.590;2023-02-20T09:08:11;4.80;99.90
16728;DHT22;8482;54.396;18.590;2023-02-20T09:10:37;4.80;99.90
16728;DHT22;8482;54.396;18.590;2023-02-20T09:13:02;4.80;99.90
16728;DHT22;8482;54.396;18.590;2023-02-20T09:15:28;4.90;99.90
16728;DHT22;8482;54.396;18.590;2023-02-20T09:17:56;5.00;99.90
16728;DHT22;8482;54.396;18.590;2023-02-20T09:20:22;5.00;99.90
16728;DHT22;8482;54.396;18.590;2023-02-20T09:22:49;5.00;99.90
16728;DHT22;8482;54.396;18.590;2023-02-20T09:25:16;5.10;99.90
16728;DHT22;8482;54.396;18.590;2023-02-20T09:27:43;5.10;99.90
16728;DHT22;8482;54.396;18.590;2023-02-20T09:30:13;5.10;99.90
16728;DHT22;8482;54.396;18.590;2023-02-20T09:32:44;5.20;99.90
16728;DHT22;8482;54.396;18.590;2023-02-20T09:35:23;5.20;99.90
16728;DHT22;8482;54.396;18.590;2023-02-20T09:37:51;5.30;99.90
16728;DHT22;8482;54.396;18.590;2023-02-20T09:40:22;5.40;99.90
16728;DHT22;8482;54.396;18.590;2023-02-20T09:46:34;5.40;99.90
16728;DHT22;8482;54.396;18.590;2023-02-20T09:49:09;5.50;99.90
16728;DHT22;8482;54.396;18.590;2023-02-20T09:52:00;5.50;99.90
16728;DHT22;8482;54.396;18.590;2023-02-20T09:54:35;5.50;99.90
16728;DHT22;8482;54.396;18.590;2023-02-20T09:57:15;5.60;99.90
16728;DHT22;8482;54.396;18.590;2023-02-20T09:59:52;5.60;99.90
16728;DHT22;8482;54.396;18.590;2023-02-20T10:02:29;5.60;99.90
16728;DHT22;8482;54.396;18.590;2023-02-20T10:05:01;5.60;99.90
16728;DHT22;8482;54.396;18.590;2023-02-20T10:07:36;5.70;99.90
16728;DHT22;8482;54.396;18.590;2023-02-20T10:10:18;5.70;99.90
16728;DHT22;8482;54.396;18.590;2023-02-20T10:21:55;5.90;99.90
16728;DHT22;8482;54.396;18.590;2023-02-20T10:24:43;5.90;99.90
16728;DHT22;8482;54.396;18.590;2023-02-20T10:30:45;6.00;99.90
16728;DHT22;8482;54.396;18.590;2023-02-20T10:33:38;6.10;99.90
16728;DHT22;8482;54.396;18.590;2023-02-20T10:36:28;6.20;99.90
16728;DHT22;8482;54.396;18.590;2023-02-20T10:39:16;6.20;99.90
16728;DHT22;8482;54.396;18.590;2023-02-20T10:41:51;6.30;99.90
16728;DHT22;8482;54.396;18.590;2023-02-20T10:44:39;6.40;99.90
16728;DHT22;8482;54.396;18.590;2023-02-20T10:47:24;6.40;99.90
16728;DHT22;8482;54.396;18.590;2023-02-20T10:50:07;6.50;99.90
16728;DHT22;8482;54.396;18.590;2023-02-20T10:52:49;6.60;99.90
16728;DHT22;8482;54.396;18.590;2023-02-20T10:55:42;6.60;99.90
16728;DHT22;8482;54.396;18.590;2023-02-20T11:01:05;6.80;99.90
16728;DHT22;8482;54.396;18.590;2023-02-20T11:03:58;6.90;99.90
16728;DHT22;8482;54.396;18.590;2023-02-20T11:09:17;7.00;99.90
16728;DHT22;8482;54.396;18.590;2023-02-20T11:11:45;7.10;99.90
16728;DHT22;8482;54.396;18.590;2023-02-20T11:17:03;7.20;99.90
16728;DHT22;8482;54.396;18.590;2023-02-20T11:19:50;7.30;99.90
16728;DHT22;8482;54.396;18.590;2023-02-20T11:22:45;7.40;99.90
16728;DHT22;8482;54.396;18.590;2023-02-20T11:25:29;7.40;99.90
16728;DHT22;8482;54.396;18.590;2023-02-20T11:28:17;7.50;99.90
16728;DHT22;8482;54.396;18.590;2023-02-20T11:30:49;7.60;99.90
16728;DHT22;8482;54.396;18.590;2023-02-20T11:33:25;7.70;99.90
16728;DHT22;8482;54.396;18.590;2023-02-20T11:35:57;7.70;99.90
16728;DHT22;8482;54.396;18.590;2023-02-20T11:38:35;7.80;99.90
16728;DHT22;8482;54.396;18.590;2023-02-20T11:43:41;7.90;99.90
16728;DHT22;8482;54.396;18.590;2023-02-20T11:46:14;7.90;99.90
16728;DHT22;8482;54.396;18.590;2023-02-20T11:51:42;8.00;99.90
16728;DHT22;8482;54.396;18.590;2023-02-20T11:54:13;8.00;99.90
16728;DHT22;8482;54.396;18.590;2023-02-20T11:57:04;8.10;99.90
16728;DHT22;8482;54.396;18.590;2023-02-20T11:59:45;8.10;99.90
16728;DHT22;8482;54.396;18.590;2023-02-20T12:13:12;8.30;99.90
16728;DHT22;8482;54.396;18.590;2023-02-20T12:15:41;8.30;99.90
16728;DHT22;8482;54.396;18.590;2023-02-20T12:21:22;8.30;99.90
16728;DHT22;8482;54.396;18.590;2023-02-20T12:24:07;8.40;99.90
16728;DHT22;8482;54.396;18.590;2023-02-20T12:26:51;8.40;99.90
16728;DHT22;8482;54.396;18.590;2023-02-20T12:47:36;8.60;99.90
16728;DHT22;8482;54.396;18.590;2023-02-20T12:50:38;8.70;99.90
16728;DHT22;8482;54.396;18.590;2023-02-20T12:56:17;8.70;99.90
16728;DHT22;8482;54.396;18.590;2023-02-20T13:02:31;8.70;99.90
16728;DHT22;8482;54.396;18.590;2023-02-20T13:05:03;8.80;99.90
16728;DHT22;8482;54.396;18.590;2023-02-20T13:07:54;8.80;99.90
16728;DHT22;8482;54.396;18.590;2023-02-20T13:10:29;8.80;99.90
16728;DHT22;8482;54.396;18.590;2023-02-20T13:12:57;8.80;99.90
16728;DHT22;8482;54.396;18.590;2023-02-20T13:18:38;8.80;99.90
16728;DHT22;8482;54.396;18.590;2023-02-20T13:21:17;8.90;99.90
16728;DHT22;8482;54.396;18.590;2023-02-20T13:23:48;8.80;99.90
16728;DHT22;8482;54.396;18.590;2023-02-20T13:29:24;8.90;99.90
16728;DHT22;8482;54.396;18.590;2023-02-20T13:31:57;8.90;99.90
16728;DHT22;8482;54.396;18.590;2023-02-20T13:34:32;8.90;99.90
16728;DHT22;8482;54.396;18.590;2023-02-20T13:37:00;8.90;99.90
16728;DHT22;8482;54.396;18.590;2023-02-20T13:39:35;8.90;99.90
16728;DHT22;8482;54.396;18.590;2023-02-20T13:42:27;8.90;99.90
16728;DHT22;8482;54.396;18.590;2023-02-20T13:44:55;8.90;99.90
16728;DHT22;8482;54.396;18.590;2023-02-20T13:55:00;8.90;99.90
16728;DHT22;8482;54.396;18.590;2023-02-20T13:57:30;9.00;99.90
16728;DHT22;8482;54.396;18.590;2023-02-20T14:00:02;9.00;99.90
16728;DHT22;8482;54.396;18.590;2023-02-20T14:02:52;9.00;99.90
16728;DHT22;8482;54.396;18.590;2023-02-20T14:05:30;9.00;99.90
16728;DHT22;8482;54.396;18.590;2023-02-20T14:07:58;9.00;99.90
16728;DHT22;8482;54.396;18.590;2023-02-20T14:10:28;9.00;99.90
16728;DHT22;8482;54.396;18.590;2023-02-20T14:13:12;9.00;99.90
16728;DHT22;8482;54.396;18.590;2023-02-20T14:15:57;9.00;99.90
16728;DHT22;8482;54.396;18.590;2023-02-20T14:18:34;9.00;99.90
16728;DHT22;8482;54.396;18.590;2023-02-20T14:21:18;9.10;99.90
16728;DHT22;8482;54.396;18.590;2023-02-20T14:23:48;9.00;99.90
16728;DHT22;8482;54.396;18.590;2023-02-20T14:26:28;9.10;99.90
16728;DHT22;8482;54.396;18.590;2023-02-20T14:28:57;9.00;99.90
16728;DHT22;8482;54.396;18.590;2023-02-20T14:31:25;9.10;99.90
16728;DHT22;8482;54.396;18.590;2023-02-20T14:33:56;9.10;99.90
16728;DHT22;8482;54.396;18.590;2023-02-20T14:39:33;9.10;99.90
16728;DHT22;8482;54.396;18.590;2023-02-20T14:42:05;9.10;99.90
16728;DHT22;8482;54.396;18.590;2023-02-20T14:44:39;9.10;99.90
16728;DHT22;8482;54.396;18.590;2023-02-20T14:47:11;9.10;99.90
16728;DHT22;8482;54.396;18.590;2023-02-20T14:49:40;9.10;99.90
16728;DHT22;8482;54.396;18.590;2023-02-20T14:54:36;9.10;99.90
16728;DHT22;8482;54.396;18.590;2023-02-20T14:57:04;9.10;99.90
16728;DHT22;8482;54.396;18.590;2023-02-20T14:59:38;9.10;99.90
16728;DHT22;8482;54.396;18.590;2023-02-20T15:02:26;9.20;99.90
16728;DHT22;8482;54.396;18.590;2023-02-20T15:04:55;9.20;99.90
16728;DHT22;8482;54.396;18.590;2023-02-20T15:07:28;9.20;99.90
16728;DHT22;8482;54.396;18.590;2023-02-20T15:09:58;9.20;99.90
16728;DHT22;8482;54.396;18.590;2023-02-20T15:12:40;9.20;99.90
16728;DHT22;8482;54.396;18.590;2023-02-20T15:15:11;9.20;99.90
16728;DHT22;8482;54.396;18.590;2023-02-20T15:17:41;9.20;99.90
16728;DHT22;8482;54.396;18.590;2023-02-20T15:22:42;9.30;99.90
16728;DHT22;8482;54.396;18.590;2023-02-20T15:28:22;9.30;99.90
16728;DHT22;8482;54.396;18.590;2023-02-20T15:33:40;9.30;99.90
16728;DHT22;8482;54.396;18.590;2023-02-20T15:36:21;9.30;99.90
16728;DHT22;8482;54.396;18.590;2023-02-20T15:38:54;9.30;99.90
16728;DHT22;8482;54.396;18.590;2023-02-20T15:41:21;9.30;99.90
16728;DHT22;8482;54.396;18.590;2023-02-20T15:43:50;9.30;99.90
16728;DHT22;8482;54.396;18.590;2023-02-20T15:46:17;9.30;99.90
16728;DHT22;8482;54.396;18.590;2023-02-20T15:48:44;9.30;99.90
16728;DHT22;8482;54.396;18.590;2023-02-20T15:51:10;9.30;99.90
16728;DHT22;8482;54.396;18.590;2023-02-20T15:53:42;9.30;99.90
16728;DHT22;8482;54.396;18.590;2023-02-20T15:56:11;9.30;99.90
16728;DHT22;8482;54.396;18.590;2023-02-20T15:58:39;9.30;99.90
16728;DHT22;8482;54.396;18.590;2023-02-20T16:01:08;9.30;99.90
16728;DHT22;8482;54.396;18.590;2023-02-20T16:03:35;9.30;99.90
16728;DHT22;8482;54.396;18.590;2023-02-20T16:06:01;9.30;99.90
16728;DHT22;8482;54.396;18.590;2023-02-20T16:08:27;9.30;99.90
16728;DHT22;8482;54.396;18.590;2023-02-20T16:10:54;9.30;99.90
16728;DHT22;8482;54.396;18.590;2023-02-20T16:13:34;9.30;99.90
16728;DHT22;8482;54.396;18.590;2023-02-20T16:16:15;9.30;99.90
16728;DHT22;8482;54.396;18.590;2023-02-20T16:18:44;9.30;99.90
16728;DHT22;8482;54.396;18.590;2023-02-20T16:21:15;9.30;99.90
16728;DHT22;8482;54.396;18.590;2023-02-20T16:23:44;9.30;99.90
16728;DHT22;8482;54.396;18.590;2023-02-20T16:26:12;9.30;99.90
16728;DHT22;8482;54.396;18.590;2023-02-20T16:28:38;9.30;99.90
16728;DHT22;8482;54.396;18.590;2023-02-20T16:31:04;9.30;99.90
16728;DHT22;8482;54.396;18.590;2023-02-20T16:33:30;9.30;99.90
16728;DHT22;8482;54.396;18.590;2023-02-20T16:35:56;9.20;99.90
16728;DHT22;8482;54.396;18.590;2023-02-20T16:38:23;9.20;99.90
16728;DHT22;8482;54.396;18.590;2023-02-20T16:40:49;9.20;99.90
16728;DHT22;8482;54.396;18.590;2023-02-20T16:43:20;9.20;99.90
16728;DHT22;8482;54.396;18.590;2023-02-20T16:45:51;9.20;99.90
16728;DHT22;8482;54.396;18.590;2023-02-20T16:48:19;9.20;99.90
16728;DHT22;8482;54.396;18.590;2023-02-20T16:50:50;9.20;99.90
16728;DHT22;8482;54.396;18.590;2023-02-20T16:53:18;9.20;99.90
16728;DHT22;8482;54.396;18.590;2023-02-20T16:55:45;9.20;99.90
16728;DHT22;8482;54.396;18.590;2023-02-20T16:58:12;9.20;99.90
16728;DHT22;8482;54.396;18.590;2023-02-20T17:00:40;9.30;99.90
16728;DHT22;8482;54.396;18.590;2023-02-20T17:03:10;9.30;99.90
16728;DHT22;8482;54.396;18.590;2023-02-20T17:05:38;9.30;99.90
16728;DHT22;8482;54.396;18.590;2023-02-20T17:08:04;9.30;99.90
16728;DHT22;8482;54.396;18.590;2023-02-20T17:10:32;9.30;99.90
16728;DHT22;8482;54.396;18.590;2023-02-20T17:12:59;9.30;99.90
16728;DHT22;8482;54.396;18.590;2023-02-20T17:15:25;9.30;99.90
16728;DHT22;8482;54.396;18.590;2023-02-20T17:17:53;9.30;99.90
16728;DHT22;8482;54.396;18.590;2023-02-20T17:20:24;9.30;99.90
16728;DHT22;8482;54.396;18.590;2023-02-20T17:22:53;9.30;99.90
16728;DHT22;8482;54.396;18.590;2023-02-20T17:25:22;9.30;99.90
16728;DHT22;8482;54.396;18.590;2023-02-20T17:27:49;9.20;99.90
16728;DHT22;8482;54.396;18.590;2023-02-20T17:30:19;9.20;99.90
16728;DHT22;8482;54.396;18.590;2023-02-20T17:32:46;9.20;99.90
16728;DHT22;8482;54.396;18.590;2023-02-20T17:35:13;9.20;99.90
16728;DHT22;8482;54.396;18.590;2023-02-20T17:37:39;9.20;99.90
16728;DHT22;8482;54.396;18.590;2023-02-20T17:40:05;9.20;99.90
16728;DHT22;8482;54.396;18.590;2023-02-20T17:42:32;9.20;99.90
16728;DHT22;8482;54.396;18.590;2023-02-20T17:44:58;9.20;99.90
16728;DHT22;8482;54.396;18.590;2023-02-20T17:47:25;9.10;99.90
16728;DHT22;8482;54.396;18.590;2023-02-20T17:49:52;9.10;99.90
16728;DHT22;8482;54.396;18.590;2023-02-20T17:52:20;9.10;99.90
16728;DHT22;8482;54.396;18.590;2023-02-20T17:54:49;9.10;99.90
16728;DHT22;8482;54.396;18.590;2023-02-20T17:57:20;9.10;99.90
16728;DHT22;8482;54.396;18.590;2023-02-20T17:59:47;9.10;99.90
16728;DHT22;8482;54.396;18.590;2023-02-20T18:02:14;9.10;99.90
16728;DHT22;8482;54.396;18.590;2023-02-20T18:04:42;9.10;99.90
16728;DHT22;8482;54.396;18.590;2023-02-20T18:07:08;9.10;99.90
16728;DHT22;8482;54.396;18.590;2023-02-20T18:09:35;9.10;99.90
16728;DHT22;8482;54.396;18.590;2023-02-20T18:12:02;9.10;99.90
16728;DHT22;8482;54.396;18.590;2023-02-20T18:14:29;9.10;99.90
16728;DHT22;8482;54.396;18.590;2023-02-20T18:16:55;9.10;99.90
16728;DHT22;8482;54.396;18.590;2023-02-20T18:19:22;9.10;99.90